createdAt,value
2018-12-18T00:02:18.131Z,98765.34
2018-12-18T00:04:46.397Z,98759.24
2018-12-18T00:07:14.680Z,98752.72
2018-12-18T00:09:42.940Z,98754.09
2018-12-18T00:12:11.220Z,98754.33
2018-12-18T00:14:39.509Z,98762.27
2018-12-18T00:17:07.781Z,98759.80
2018-12-18T00:19:36.049Z,98757.34
2018-12-18T00:22:04.532Z,98761.47
2018-12-18T00:24:32.853Z,98751.80
2018-12-18T00:27:01.139Z,98754.81
2018-12-18T00:29:29.408Z,98753.39
2018-12-18T00:31:57.664Z,98749.03
2018-12-18T00:34:25.928Z,98745.76
2018-12-18T00:36:54.191Z,98753.09
2018-12-18T00:39:22.445Z,98758.31
2018-12-18T00:56:47.475Z,98749.55
2018-12-18T00:59:15.795Z,98752.73
2018-12-18T01:01:46.155Z,98747.58
2018-12-18T01:04:14.555Z,98742.77
2018-12-18T01:06:42.923Z,98746.80
2018-12-18T01:09:11.213Z,98743.03
2018-12-18T01:11:39.472Z,98742.24
2018-12-18T01:14:07.837Z,98744.00
2018-12-18T01:16:36.194Z,98745.27
2018-12-18T01:19:04.640Z,98745.12
2018-12-18T01:21:32.979Z,98745.12
2018-12-18T01:24:01.284Z,98743.22
2018-12-18T01:26:29.629Z,98747.09
2018-12-18T01:28:58.267Z,98750.01
2018-12-18T01:31:26.672Z,98754.44
2018-12-18T01:33:59.277Z,98758.98
2018-12-18T01:36:25.404Z,98756.48
2018-12-18T01:38:53.681Z,98751.49
2018-12-18T01:41:21.995Z,98757.12
2018-12-18T01:43:50.263Z,98754.03
2018-12-18T01:46:18.588Z,98752.09
2018-12-18T01:48:46.904Z,98754.92
2018-12-18T01:51:15.221Z,98752.35
2018-12-18T01:53:43.487Z,98746.77
2018-12-18T01:56:11.767Z,98741.81
2018-12-18T01:58:40.109Z,98742.59
2018-12-18T02:01:08.385Z,98741.03
2018-12-18T02:03:36.675Z,98742.92
2018-12-18T02:06:04.937Z,98740.51
2018-12-18T02:08:33.204Z,98744.67
2018-12-18T02:11:01.480Z,98740.88
2018-12-18T02:13:29.740Z,98743.84
2018-12-18T02:15:57.996Z,98747.53
2018-12-18T02:18:26.255Z,98755.42
2018-12-18T02:20:54.531Z,98759.41
2018-12-18T02:23:22.775Z,98761.09
2018-12-18T02:25:51.035Z,98755.21
2018-12-18T02:28:19.339Z,98756.48
2018-12-18T02:30:47.673Z,98760.52
2018-12-18T02:33:15.930Z,98752.03
2018-12-18T02:35:44.208Z,98750.25
2018-12-18T02:40:54.985Z,98756.99
2018-12-18T02:43:23.348Z,98755.55
2018-12-18T02:45:51.605Z,98753.13
2018-12-18T02:48:20.187Z,98753.58
2018-12-18T02:50:48.457Z,98743.86
2018-12-18T02:53:16.744Z,98745.69
2018-12-18T02:55:45.008Z,98752.75
2018-12-18T02:58:13.285Z,98746.28
2018-12-18T03:00:41.563Z,98756.81
2018-12-18T03:03:09.842Z,98753.33
2018-12-18T03:05:38.100Z,98751.09
2018-12-18T03:08:06.376Z,98748.50
2018-12-18T03:10:34.645Z,98750.10
2018-12-18T03:13:02.927Z,98748.70
2018-12-18T03:15:31.304Z,98743.59
2018-12-18T03:17:59.582Z,98744.33
2018-12-18T03:20:27.915Z,98747.72
2018-12-18T03:22:56.173Z,98753.92
2018-12-18T03:25:24.453Z,98749.98
2018-12-18T03:27:52.803Z,98748.50
2018-12-18T03:30:21.068Z,98748.84
2018-12-18T03:35:31.331Z,98738.94
2018-12-18T03:37:59.612Z,98735.17
2018-12-18T03:40:27.873Z,98735.50
2018-12-18T03:42:56.147Z,98744.68
2018-12-18T03:45:24.430Z,98738.20
2018-12-18T03:47:52.687Z,98732.32
2018-12-18T03:50:20.984Z,98727.07
2018-12-18T03:52:49.246Z,98733.48
2018-12-18T03:55:17.530Z,98738.44
2018-12-18T03:57:45.911Z,98734.80
2018-12-18T04:00:14.183Z,98735.32
2018-12-18T04:02:42.460Z,98736.77
2018-12-18T04:05:10.726Z,98729.83
2018-12-18T04:07:38.992Z,98731.37
2018-12-18T04:10:07.491Z,98734.12
2018-12-18T04:12:35.997Z,98732.97
2018-12-18T04:15:05.184Z,98733.14
2018-12-18T04:17:33.451Z,98740.29
2018-12-18T04:20:01.768Z,98738.79
2018-12-18T04:22:30.230Z,98736.67
2018-12-18T04:24:58.476Z,98742.95
2018-12-18T04:27:26.752Z,98733.45
2018-12-18T04:29:55.010Z,98736.06
2018-12-18T04:32:23.279Z,98737.16
2018-12-18T04:34:51.631Z,98708.17
2018-12-18T04:37:20.001Z,98733.08
2018-12-18T04:39:48.272Z,98733.58
2018-12-18T04:42:16.543Z,98732.25
2018-12-18T04:44:44.803Z,98736.16
2018-12-18T04:47:13.207Z,98732.66
2018-12-18T04:49:41.601Z,98731.88
2018-12-18T04:52:09.981Z,98735.05
2018-12-18T04:54:38.250Z,98732.48
2018-12-18T04:57:06.525Z,98727.75
2018-12-18T04:59:34.783Z,98728.06
2018-12-18T05:02:03.057Z,98703.93
2018-12-18T05:04:31.317Z,98733.20
2018-12-18T05:06:59.600Z,98734.16
2018-12-18T05:09:27.867Z,98733.32
2018-12-18T05:11:56.129Z,98739.52
2018-12-18T05:14:24.402Z,98738.41
2018-12-18T05:16:52.660Z,98749.81
2018-12-18T05:19:20.997Z,98747.64
2018-12-18T05:21:49.256Z,98739.27
2018-12-18T05:24:17.579Z,98734.69
2018-12-18T05:26:45.872Z,98739.75
2018-12-18T05:29:14.143Z,98739.64
2018-12-18T05:31:42.413Z,98746.42
2018-12-18T05:34:10.693Z,98746.38
2018-12-18T05:36:38.953Z,98749.92
2018-12-18T05:39:07.725Z,98750.37
2018-12-18T05:41:36.007Z,98749.17
2018-12-18T05:44:04.499Z,98747.09
2018-12-18T05:46:32.763Z,98742.92
2018-12-18T05:49:01.024Z,98742.63
2018-12-18T05:51:29.306Z,98742.89
2018-12-18T05:53:57.554Z,98736.55
2018-12-18T05:56:25.816Z,98736.71
2018-12-18T05:58:54.080Z,98729.04
2018-12-18T06:01:22.454Z,98730.97
2018-12-18T06:03:50.742Z,98739.16
2018-12-18T06:06:19.067Z,98738.94
2018-12-18T06:08:47.365Z,98735.02
2018-12-18T06:11:15.850Z,98732.48
2018-12-18T06:13:44.338Z,98736.36
2018-12-18T06:16:12.746Z,98731.22
2018-12-18T06:18:41.114Z,98730.66
2018-12-18T06:21:09.478Z,98733.68
2018-12-18T06:23:37.878Z,98737.22
2018-12-18T06:26:06.263Z,98728.25
2018-12-18T06:28:34.632Z,98732.05
2018-12-18T06:31:03.012Z,98741.92
2018-12-18T06:33:31.303Z,98741.66
2018-12-18T06:35:59.639Z,98739.23
2018-12-18T06:38:28.032Z,98748.77
2018-12-18T06:40:56.344Z,98744.81
2018-12-18T06:43:24.632Z,98743.69
2018-12-18T06:45:52.898Z,98740.62
2018-12-18T06:48:21.151Z,98739.25
2018-12-18T06:50:49.424Z,98739.96
2018-12-18T06:53:17.684Z,98742.24
2018-12-18T06:55:45.991Z,98747.76
2018-12-18T06:58:14.282Z,98744.41
2018-12-18T07:00:42.543Z,98738.73
2018-12-18T07:03:10.864Z,98742.38
2018-12-18T07:05:39.137Z,98742.03
2018-12-18T07:08:07.426Z,98740.31
2018-12-18T07:10:35.695Z,98742.48
2018-12-18T07:13:04.007Z,98742.42
2018-12-18T07:15:32.480Z,98748.70
2018-12-18T07:18:00.748Z,98748.47
2018-12-18T07:20:29.024Z,98749.84
2018-12-18T07:22:57.283Z,98756.33
2018-12-18T07:25:25.579Z,98760.58
2018-12-18T07:27:53.840Z,98763.66
2018-12-18T07:30:22.251Z,98759.62
2018-12-18T07:32:50.604Z,98762.16
2018-12-18T07:35:23.307Z,98765.30
2018-12-18T07:37:49.239Z,98764.07
2018-12-18T07:40:17.603Z,98771.27
2018-12-18T07:42:45.860Z,98775.48
2018-12-18T07:45:14.163Z,98772.44
2018-12-18T07:47:42.434Z,98776.30
2018-12-18T07:50:10.764Z,98772.84
2018-12-18T07:52:39.019Z,98774.63
2018-12-18T07:55:07.851Z,98780.14
2018-12-18T07:57:36.112Z,98783.30
2018-12-18T08:00:05.450Z,98781.14
2018-12-18T08:02:33.872Z,98781.89
2018-12-18T08:05:02.167Z,98792.62
2018-12-18T08:07:30.417Z,98782.74
2018-12-18T08:09:58.666Z,98784.10
2018-12-18T08:12:26.936Z,98790.41
2018-12-18T08:14:55.189Z,98789.77
2018-12-18T08:17:23.444Z,98781.10
2018-12-18T08:19:51.717Z,98788.20
2018-12-18T08:22:20.043Z,98792.55
2018-12-18T08:24:48.377Z,98792.24
2018-12-18T08:27:16.714Z,98790.94
2018-12-18T08:29:45.065Z,98796.69
2018-12-18T08:32:13.359Z,98794.70
2018-12-18T08:34:41.715Z,98787.85
2018-12-18T08:37:10.024Z,98786.80
2018-12-18T08:39:38.362Z,98784.81
2018-12-18T08:42:06.635Z,98769.83
2018-12-18T08:44:34.957Z,98769.35
2018-12-18T08:47:03.290Z,98763.69
2018-12-18T08:49:31.623Z,98751.10
2018-12-18T08:51:59.887Z,98748.00
2018-12-18T08:54:28.140Z,98744.90
2018-12-18T08:56:56.448Z,98738.94
2018-12-18T08:59:24.708Z,98739.38
2018-12-18T09:01:53.129Z,98738.97
2018-12-18T09:04:21.379Z,98736.63
2018-12-18T09:06:49.715Z,98735.89
2018-12-18T09:09:17.983Z,98690.18
2018-12-18T09:11:46.245Z,98741.60
2018-12-18T09:14:14.509Z,98728.63
2018-12-18T09:16:48.328Z,98718.47
2018-12-18T09:19:16.592Z,98715.77
2018-12-18T09:21:44.852Z,98710.16
2018-12-18T09:24:13.117Z,98713.80
2018-12-18T09:26:41.389Z,98717.70
2018-12-18T09:29:09.660Z,98708.61
2018-12-18T09:31:37.920Z,98708.20
2018-12-18T09:34:06.183Z,98706.48
2018-12-18T09:36:34.461Z,98706.63
2018-12-18T09:39:08.369Z,98712.20
2018-12-18T09:41:39.500Z,98715.30
2018-12-18T09:46:58.299Z,98716.73
2018-12-18T09:49:26.552Z,98718.03
2018-12-18T09:51:54.805Z,98718.86
2018-12-18T09:54:23.138Z,98723.84
2018-12-18T09:56:51.391Z,98721.17
2018-12-18T09:59:19.643Z,98723.30
2018-12-18T10:01:47.905Z,98722.55
2018-12-18T10:04:16.148Z,98721.67
2018-12-18T10:06:45.185Z,98719.55
2018-12-18T10:09:13.593Z,98715.85
2018-12-18T10:11:41.836Z,98715.01
2018-12-18T10:14:10.112Z,98708.77
2018-12-18T10:16:38.417Z,98700.75
2018-12-18T10:19:06.704Z,98700.09
2018-12-18T10:21:34.980Z,98694.11
2018-12-18T10:24:03.228Z,98697.98
2018-12-18T10:26:31.537Z,98688.15
2018-12-18T10:29:00.542Z,98685.64
2018-12-18T10:31:28.808Z,98679.20
2018-12-18T10:33:57.061Z,98678.58
2018-12-18T10:36:25.352Z,98673.52
2018-12-18T10:38:53.651Z,98658.80
2018-12-18T10:41:21.909Z,98659.98
2018-12-18T10:43:50.198Z,98649.66
2018-12-18T10:46:18.460Z,98646.07
2018-12-18T10:48:46.728Z,98646.92
2018-12-18T10:51:15.059Z,98641.05
2018-12-18T10:53:43.296Z,98639.92
2018-12-18T10:56:11.555Z,98640.39
2018-12-18T10:58:39.808Z,98638.11
2018-12-18T11:04:05.125Z,98633.82
2018-12-18T11:06:33.550Z,98620.66
2018-12-18T11:09:01.869Z,98621.20
2018-12-18T11:11:30.136Z,98623.28
2018-12-18T11:13:58.397Z,98625.61
2018-12-18T11:16:26.781Z,98615.18
2018-12-18T11:18:55.059Z,98614.99
2018-12-18T11:21:23.415Z,98602.95
2018-12-18T11:23:51.712Z,98593.43
2018-12-18T11:26:19.967Z,98589.78
2018-12-18T11:28:48.243Z,98592.34
2018-12-18T11:31:16.579Z,98579.34
2018-12-18T11:33:44.919Z,98583.77
2018-12-18T11:36:16.499Z,98583.02
2018-12-18T11:38:43.610Z,98587.30
2018-12-18T11:41:11.937Z,98580.47
2018-12-18T11:43:40.608Z,98576.66
2018-12-18T11:46:09.054Z,98575.45
2018-12-18T11:48:37.656Z,98577.16
2018-12-18T11:51:06.115Z,98576.83
2018-12-18T11:53:34.556Z,98569.45
2018-12-18T11:56:02.971Z,98574.78
2018-12-18T11:58:31.341Z,98565.00
2018-12-18T12:00:59.726Z,98557.42
2018-12-18T12:03:28.122Z,98549.84
2018-12-18T12:05:56.603Z,98540.20
2018-12-18T12:08:25.046Z,98542.28
2018-12-18T12:10:53.374Z,98548.06
2018-12-18T12:13:21.872Z,98557.25
2018-12-18T12:15:50.190Z,98548.95
2018-12-18T12:18:18.578Z,98547.23
2018-12-18T12:20:46.915Z,98543.52
2018-12-18T12:23:15.226Z,98535.63
2018-12-18T12:25:43.572Z,98527.23
2018-12-18T12:28:12.097Z,98517.24
2018-12-18T12:30:40.432Z,98514.92
2018-12-18T12:33:08.764Z,98507.91
2018-12-18T12:35:37.131Z,98500.74
2018-12-18T12:38:05.528Z,98493.61
2018-12-18T12:40:33.989Z,98492.76
2018-12-18T12:43:02.343Z,98484.29
2018-12-18T12:45:30.700Z,98496.92
2018-12-18T12:47:59.035Z,98484.20
2018-12-18T12:50:27.408Z,98473.84
2018-12-18T12:52:55.886Z,98475.49
2018-12-18T12:55:24.220Z,98472.17
2018-12-18T12:57:52.553Z,98482.22
2018-12-18T13:00:20.904Z,98478.80
2018-12-18T13:02:49.207Z,98475.97
2018-12-18T13:05:17.607Z,98484.87
2018-12-18T13:07:45.922Z,98475.48
2018-12-18T13:10:14.298Z,98479.03
2018-12-18T13:12:42.611Z,98476.44
2018-12-18T13:15:10.917Z,98474.75
2018-12-18T13:17:39.302Z,98476.44
2018-12-18T13:20:07.750Z,98474.07
2018-12-18T13:22:36.088Z,98468.57
2018-12-18T13:25:05.349Z,98467.99
2018-12-18T13:27:33.699Z,98458.37
2018-12-18T13:30:02.824Z,98459.52
2018-12-18T13:32:31.166Z,98454.94
2018-12-18T13:34:59.677Z,98448.66
2018-12-18T13:37:28.061Z,98438.91
2018-12-18T13:39:56.375Z,98440.09
2018-12-18T13:42:24.718Z,98439.26
2018-12-18T13:44:53.274Z,98431.27
2018-12-18T13:47:27.149Z,98427.48
2018-12-18T13:49:52.358Z,98428.73
2018-12-18T13:52:20.856Z,98419.44
2018-12-18T13:54:49.298Z,98420.69
2018-12-18T13:57:17.727Z,98420.25
2018-12-18T13:59:46.205Z,98418.50
2018-12-18T14:02:14.540Z,98418.08
2018-12-18T14:04:43.143Z,98419.53
2018-12-18T14:07:11.535Z,98411.49
2018-12-18T14:09:40.247Z,98414.80
2018-12-18T14:12:08.591Z,98412.34
2018-12-18T14:14:36.912Z,98417.02
2018-12-18T14:19:47.725Z,98418.61
2018-12-18T14:22:16.021Z,98415.13
2018-12-18T14:24:44.353Z,98412.34
2018-12-18T14:27:12.715Z,98407.37
2018-12-18T14:29:40.991Z,98401.79
2018-12-18T14:32:09.260Z,98394.56
2018-12-18T14:34:37.536Z,98396.25
2018-12-18T14:37:05.796Z,98389.75
2018-12-18T14:39:34.061Z,98387.75
2018-12-18T14:42:02.338Z,98390.43
2018-12-18T14:44:30.611Z,98392.64
2018-12-18T14:46:58.994Z,98392.97
2018-12-18T14:49:27.316Z,98389.65
2018-12-18T14:51:55.575Z,98383.39
2018-12-18T14:54:23.903Z,98380.50
2018-12-18T14:56:52.163Z,98377.36
2018-12-18T14:59:22.474Z,98373.55
2018-12-18T15:01:50.789Z,98371.89
2018-12-18T15:04:19.108Z,98376.14
2018-12-18T15:06:47.488Z,98382.97
2018-12-18T15:09:15.808Z,98378.29
2018-12-18T15:11:44.241Z,98382.54
2018-12-18T15:14:12.750Z,98375.35
2018-12-18T15:16:41.176Z,98372.39
2018-12-18T15:19:09.566Z,98368.23
2018-12-18T15:21:38.016Z,98363.58
2018-12-18T15:24:06.414Z,98362.13
2018-12-18T15:26:34.754Z,98358.87
2018-12-18T15:29:03.116Z,98355.56
2018-12-18T15:31:31.494Z,98345.91
2018-12-18T15:33:59.870Z,98339.98
2018-12-18T15:36:28.195Z,98341.59
2018-12-18T15:38:56.642Z,98332.43
2018-12-18T15:41:24.983Z,98331.59
2018-12-18T15:43:53.407Z,98334.05
2018-12-18T15:46:21.755Z,98323.89
2018-12-18T15:48:50.070Z,98320.70
2018-12-18T15:51:18.385Z,98313.92
2018-12-18T15:53:46.725Z,98316.97
2018-12-18T15:56:15.078Z,98210.81
2018-12-18T15:58:43.365Z,98312.53
2018-12-18T16:01:11.616Z,98307.09
2018-12-18T16:03:39.887Z,98308.50
2018-12-18T16:06:08.140Z,98319.85
2018-12-18T16:08:36.401Z,98323.64
2018-12-18T16:11:04.669Z,98322.50
2018-12-18T16:13:32.936Z,98330.05
2018-12-18T16:16:01.261Z,98327.56
2018-12-18T16:18:29.553Z,98325.78
2018-12-18T16:20:57.824Z,98330.53
2018-12-18T16:23:26.124Z,98335.86
2018-12-18T16:25:54.379Z,98335.30
2018-12-18T16:28:22.652Z,98329.10
2018-12-18T16:30:50.929Z,98325.66
2018-12-18T16:33:19.207Z,98320.38
2018-12-18T16:35:47.498Z,98327.58
2018-12-18T16:38:15.758Z,98323.84
2018-12-18T16:40:44.064Z,98322.14
2018-12-18T16:43:12.343Z,98319.63
2018-12-18T16:45:40.601Z,98318.56
2018-12-18T16:48:08.863Z,98314.36
2018-12-18T16:50:37.136Z,98313.83
2018-12-18T16:53:05.443Z,98309.54
2018-12-18T16:55:33.719Z,98298.55
2018-12-18T16:58:01.995Z,98297.73
2018-12-18T17:00:30.273Z,98297.88
2018-12-18T17:02:58.519Z,98298.80
2018-12-18T17:05:26.828Z,98303.28
2018-12-18T17:07:55.100Z,98303.64
2018-12-18T17:10:23.354Z,98299.66
2018-12-18T17:12:56.180Z,98297.04
2018-12-18T17:15:24.744Z,98304.31
2018-12-18T17:17:53.077Z,98296.63
2018-12-18T17:20:21.417Z,98301.80
2018-12-18T17:22:49.686Z,98295.02
2018-12-18T17:25:17.936Z,98306.50
2018-12-18T17:27:46.190Z,98301.45
2018-12-18T17:30:14.452Z,98299.77
2018-12-18T17:32:42.704Z,98307.45
2018-12-18T17:35:11.064Z,98307.45
2018-12-18T17:37:39.482Z,98303.30
2018-12-18T17:40:08.023Z,98299.93
2018-12-18T17:42:36.331Z,98293.22
2018-12-18T17:45:06.041Z,98288.98
2018-12-18T17:47:34.399Z,98296.17
2018-12-18T17:50:02.737Z,98289.84
2018-12-18T17:52:30.975Z,98293.73
2018-12-18T17:54:59.228Z,98291.09
2018-12-18T17:57:27.491Z,98286.66
2018-12-18T17:59:55.739Z,98291.06
2018-12-18T18:02:23.993Z,98286.33
2018-12-18T18:04:52.315Z,98282.42
2018-12-18T18:07:20.649Z,98284.38
2018-12-18T18:09:48.980Z,98278.80
2018-12-18T18:12:17.247Z,98283.45
2018-12-18T18:14:45.512Z,98287.76
2018-12-18T18:17:13.776Z,98284.88
2018-12-18T18:19:42.023Z,98284.86
2018-12-18T18:22:10.323Z,98287.45
2018-12-18T18:24:38.721Z,98278.91
2018-12-18T18:27:07.011Z,98270.73
2018-12-18T18:29:35.306Z,98263.89
2018-12-18T18:32:03.617Z,98262.00
2018-12-18T18:34:31.964Z,98260.45
2018-12-18T18:37:00.424Z,98255.61
2018-12-18T18:39:28.806Z,98252.61
2018-12-18T18:41:57.341Z,98247.10
2018-12-18T18:44:26.062Z,98236.86
2018-12-18T18:46:55.337Z,98229.67
2018-12-18T18:49:23.767Z,98224.30
2018-12-18T18:51:52.607Z,98224.66
2018-12-18T18:54:21.186Z,98211.98
2018-12-18T18:56:49.750Z,98197.00
2018-12-18T18:59:18.169Z,98193.30
2018-12-18T19:01:46.649Z,98194.92
2018-12-18T19:04:14.991Z,98178.80
2018-12-18T19:06:44.043Z,98178.86
2018-12-18T19:09:12.435Z,98171.66
2018-12-18T19:11:41.272Z,98170.11
2018-12-18T19:14:09.794Z,98161.01
2018-12-18T19:16:38.685Z,98161.17
2018-12-18T19:19:08.336Z,98157.72
2018-12-18T19:21:37.495Z,98148.05
2018-12-18T19:24:06.316Z,98150.11
2018-12-18T19:26:35.672Z,98138.64
2018-12-18T19:29:04.549Z,98125.63
2018-12-18T19:31:33.732Z,98127.08
2018-12-18T19:34:03.676Z,98126.73
2018-12-18T19:36:33.417Z,98112.55
2018-12-18T19:39:06.698Z,98112.23
2018-12-18T19:41:36.697Z,98105.88
2018-12-18T19:44:06.633Z,98107.02
2018-12-18T19:46:36.418Z,98094.39
2018-12-18T19:49:06.647Z,98095.98
2018-12-18T19:51:36.583Z,98091.79
2018-12-18T19:54:06.660Z,98094.54
2018-12-18T19:56:36.694Z,98090.22
2018-12-18T19:59:10.760Z,98095.39
2018-12-18T20:01:38.178Z,98097.98
2018-12-18T20:04:08.113Z,98098.88
2018-12-18T20:06:37.853Z,98096.00
2018-12-18T20:09:08.198Z,98098.58
2018-12-18T20:11:38.828Z,98094.41
2018-12-18T20:14:08.701Z,98095.33
2018-12-18T20:16:38.542Z,98094.55
2018-12-18T20:19:08.228Z,98095.98
2018-12-18T20:21:37.872Z,98097.28
2018-12-18T20:24:07.617Z,98102.87
2018-12-18T20:26:37.431Z,98103.14
2018-12-18T20:29:07.559Z,98101.11
2018-12-18T20:31:37.757Z,98098.78
2018-12-18T20:34:07.047Z,98096.82
2018-12-18T20:36:36.982Z,98093.27
2018-12-18T20:39:09.073Z,98097.69
2018-12-18T20:41:38.769Z,98093.13
2018-12-18T20:44:08.622Z,98093.72
2018-12-18T20:46:37.891Z,98095.83
2018-12-18T20:49:07.704Z,98094.49
2018-12-18T20:51:37.607Z,98090.90
2018-12-18T20:54:07.673Z,98088.74
2018-12-18T20:56:37.545Z,98085.66
2018-12-18T20:59:06.887Z,98080.83
2018-12-18T21:01:37.117Z,98072.45
2018-12-18T21:04:06.429Z,98072.13
2018-12-18T21:06:35.716Z,98075.77
2018-12-18T21:09:09.038Z,98068.84
2018-12-18T21:14:20.783Z,98058.98
2018-12-18T21:16:50.162Z,98057.27
2018-12-18T21:19:19.924Z,98044.07
2018-12-18T21:21:49.136Z,98040.04
2018-12-18T21:24:18.384Z,98039.33
2018-12-18T21:26:47.679Z,98048.08
2018-12-18T21:29:16.829Z,98027.63
2018-12-18T21:31:46.153Z,98028.77
2018-12-18T21:34:15.395Z,98019.24
2018-12-18T21:36:44.515Z,98021.98
2018-12-18T21:39:14.501Z,98010.09
2018-12-18T21:41:43.575Z,98001.50
2018-12-18T21:44:12.431Z,97995.56
2018-12-18T21:46:41.543Z,97993.53
2018-12-18T21:49:09.907Z,97993.93
2018-12-18T21:51:38.643Z,97999.75
2018-12-18T21:54:07.039Z,97995.94
2018-12-18T21:56:35.351Z,98003.09
2018-12-18T21:59:03.677Z,98004.97
2018-12-18T22:01:31.990Z,98009.82
2018-12-18T22:04:00.282Z,98008.20
2018-12-18T22:06:28.629Z,98004.77
2018-12-18T22:08:56.929Z,98002.80
2018-12-18T22:11:25.332Z,98004.64
2018-12-18T22:13:53.602Z,98003.68
2018-12-18T22:16:21.885Z,97995.84
2018-12-18T22:18:50.147Z,97989.09
2018-12-18T22:21:18.596Z,97989.13
2018-12-18T22:23:46.860Z,97988.06
2018-12-18T22:26:15.232Z,97983.83
2018-12-18T22:28:43.532Z,97990.65
2018-12-18T22:31:11.786Z,97993.92
2018-12-18T22:33:40.060Z,97980.22
2018-12-18T22:36:08.311Z,97971.84
2018-12-18T22:38:36.608Z,97969.42
2018-12-18T22:41:04.887Z,97968.34
2018-12-18T22:43:33.148Z,97963.39
2018-12-18T22:46:01.418Z,97959.30
2018-12-18T22:48:29.698Z,97958.89
2018-12-18T22:50:57.960Z,97965.33
2018-12-18T22:53:26.209Z,97954.70
2018-12-18T22:55:54.455Z,97939.44
2018-12-18T22:58:22.731Z,97933.64
2018-12-18T23:03:40.660Z,97929.76
2018-12-18T23:06:08.996Z,97932.17
2018-12-18T23:08:37.320Z,97931.05
2018-12-18T23:11:05.595Z,97928.44
2018-12-18T23:13:33.863Z,97927.45
2018-12-18T23:16:02.135Z,97929.66
2018-12-18T23:18:30.395Z,97930.92
2018-12-18T23:20:58.664Z,97933.13
2018-12-18T23:23:26.927Z,97919.34
2018-12-18T23:25:55.196Z,97917.56
2018-12-18T23:28:23.475Z,97918.76
2018-12-18T23:30:51.737Z,97916.47
2018-12-18T23:33:20.007Z,97914.80
2018-12-18T23:35:48.392Z,97913.23
2018-12-18T23:38:16.676Z,97908.95
2018-12-18T23:40:45.043Z,97903.05
2018-12-18T23:43:13.379Z,97903.46
2018-12-18T23:45:41.679Z,97897.40
2018-12-18T23:48:09.964Z,97882.45
2018-12-18T23:50:38.235Z,97884.31
2018-12-18T23:53:06.498Z,97886.94
2018-12-18T23:55:34.778Z,97888.38
2018-12-18T23:58:03.035Z,97872.84
